createdAt,value
2022-11-09T00:00:52.451Z,96872.88
2022-11-09T00:02:56.520Z,96881.81
2022-11-09T00:04:59.156Z,96879.25
2022-11-09T00:07:02.494Z,96874.91
2022-11-09T00:09:08.154Z,96874.06
2022-11-09T00:11:12.211Z,96877.59
2022-11-09T00:13:14.864Z,96879.13
2022-11-09T00:15:18.843Z,96877.44
2022-11-09T00:17:21.440Z,96876.66
2022-11-09T00:19:24.482Z,96874.13
2022-11-09T00:21:27.156Z,96868.97
2022-11-09T00:23:29.755Z,96860.31
2022-11-09T00:25:32.419Z,96873.34
2022-11-09T00:27:35.041Z,96867.25
2022-11-09T00:29:40.306Z,96868.06
2022-11-09T00:31:44.246Z,96867.16
2022-11-09T00:33:49.126Z,96870.53
2022-11-09T00:35:51.704Z,96862.78
2022-11-09T00:37:55.267Z,96863.56
2022-11-09T00:39:59.156Z,96872.09
2022-11-09T00:42:01.727Z,96866.00
2022-11-09T00:44:04.588Z,96865.94
2022-11-09T00:46:07.452Z,96862.38
2022-11-09T00:48:11.645Z,96868.38
2022-11-09T00:50:14.229Z,96861.53
2022-11-09T00:52:16.846Z,96861.59
2022-11-09T00:54:19.441Z,96864.22
2022-11-09T00:56:22.714Z,96859.84
2022-11-09T00:58:26.122Z,96857.31
2022-11-09T01:00:28.761Z,96850.38
2022-11-09T01:02:31.348Z,96859.94
2022-11-09T01:04:35.449Z,96861.69
2022-11-09T01:06:38.078Z,96856.47
2022-11-09T01:08:40.664Z,96864.28
2022-11-09T01:10:44.506Z,96872.94
2022-11-09T01:12:47.077Z,96862.53
2022-11-09T01:14:49.680Z,96868.63
2022-11-09T01:16:52.491Z,96865.06
2022-11-09T01:18:56.397Z,96864.13
2022-11-09T01:21:00.385Z,96867.75
2022-11-09T01:23:02.970Z,96863.38
2022-11-09T01:25:06.387Z,96866.97
2022-11-09T01:27:09.033Z,96865.22
2022-11-09T01:29:11.601Z,96862.72
2022-11-09T01:31:16.061Z,96865.13
2022-11-09T01:33:18.942Z,96861.69
2022-11-09T01:35:21.743Z,96854.00
2022-11-09T01:37:25.720Z,96866.25
2022-11-09T01:39:28.300Z,96863.69
2022-11-09T01:41:30.921Z,96858.63
2022-11-09T01:43:33.871Z,96856.91
2022-11-09T01:45:36.546Z,96856.03
2022-11-09T01:47:39.159Z,96847.56
2022-11-09T01:49:46.940Z,96847.50
2022-11-09T01:51:54.922Z,96847.56
2022-11-09T01:54:04.864Z,96850.91
2022-11-09T01:56:11.323Z,96844.88
2022-11-09T01:58:17.974Z,96853.59
2022-11-09T02:00:21.290Z,96850.91
2022-11-09T02:02:24.355Z,96854.38
2022-11-09T02:04:32.014Z,96850.09
2022-11-09T02:06:35.238Z,96839.81
2022-11-09T02:08:38.408Z,96843.25
2022-11-09T02:10:48.341Z,96837.97
2022-11-09T02:12:51.076Z,96836.28
2022-11-09T02:14:55.843Z,96839.75
2022-11-09T02:16:58.478Z,96843.97
2022-11-09T02:19:01.859Z,96846.44
2022-11-09T02:21:06.625Z,96853.59
2022-11-09T02:23:09.214Z,96854.72
2022-11-09T02:25:14.934Z,96853.72
2022-11-09T02:27:17.987Z,96848.53
2022-11-09T02:29:24.719Z,96845.84
2022-11-09T02:31:32.131Z,96843.16
2022-11-09T02:33:43.664Z,96851.78
2022-11-09T02:35:46.364Z,96842.06
2022-11-09T02:37:51.626Z,96852.28
2022-11-09T02:39:54.713Z,96853.06
2022-11-09T02:42:03.101Z,96856.47
2022-11-09T02:44:06.674Z,96866.63
2022-11-09T02:46:09.296Z,96862.31
2022-11-09T02:48:11.948Z,96864.84
2022-11-09T02:50:14.532Z,96868.53
2022-11-09T02:52:17.430Z,96874.56
2022-11-09T02:54:21.453Z,96875.34
2022-11-09T02:56:24.221Z,96881.47
2022-11-09T02:58:26.775Z,96875.34
2022-11-09T03:00:29.383Z,96876.94
2022-11-09T03:02:32.018Z,96869.03
2022-11-09T03:04:34.653Z,96875.03
2022-11-09T03:06:37.455Z,96883.72
2022-11-09T03:08:40.158Z,96876.59
2022-11-09T03:10:44.146Z,96874.81
2022-11-09T03:12:46.768Z,96868.72
2022-11-09T03:14:49.339Z,96879.00
2022-11-09T03:16:51.931Z,96877.25
2022-11-09T03:18:54.813Z,96885.47
2022-11-09T03:21:02.615Z,96882.13
2022-11-09T03:23:05.245Z,96885.28
2022-11-09T03:25:08.778Z,96890.22
2022-11-09T03:27:12.860Z,96904.28
2022-11-09T03:29:15.478Z,96920.94
2022-11-09T03:31:18.083Z,96928.84
2022-11-09T03:33:21.164Z,96921.88
2022-11-09T03:35:23.955Z,96917.50
2022-11-09T03:37:26.615Z,96925.78
2022-11-09T03:39:29.332Z,96916.97
2022-11-09T03:41:31.984Z,96918.75
2022-11-09T03:43:35.921Z,96925.34
2022-11-09T03:45:38.566Z,96936.78
2022-11-09T03:47:41.725Z,96930.84
2022-11-09T03:49:44.561Z,96936.19
2022-11-09T03:51:47.151Z,96931.00
2022-11-09T03:53:49.781Z,96929.25
2022-11-09T03:55:52.389Z,96923.25
2022-11-09T03:57:55.512Z,96932.66
2022-11-09T04:00:01.827Z,96935.53
2022-11-09T04:02:04.441Z,96937.22
2022-11-09T04:04:07.058Z,96943.44
2022-11-09T04:06:09.667Z,96943.47
2022-11-09T04:08:12.330Z,96948.75
2022-11-09T04:10:14.968Z,96955.47
2022-11-09T04:12:17.583Z,96956.47
2022-11-09T04:14:20.183Z,96958.94
2022-11-09T04:16:24.173Z,96952.13
2022-11-09T04:18:26.797Z,96950.38
2022-11-09T04:20:31.127Z,96957.41
2022-11-09T04:22:33.812Z,96956.19
2022-11-09T04:24:36.409Z,96958.94
2022-11-09T04:26:39.016Z,96962.38
2022-11-09T04:28:41.575Z,96959.66
2022-11-09T04:30:44.204Z,96964.78
2022-11-09T04:32:48.153Z,96962.19
2022-11-09T04:34:50.811Z,96960.81
2022-11-09T04:36:53.460Z,96954.06
2022-11-09T04:38:56.078Z,96957.25
2022-11-09T04:41:01.484Z,96946.19
2022-11-09T04:43:06.101Z,96962.00
2022-11-09T04:45:09.306Z,96966.41
2022-11-09T04:47:11.925Z,96959.16
2022-11-09T04:49:15.899Z,96969.28
2022-11-09T04:51:18.662Z,96959.88
2022-11-09T04:53:21.685Z,96955.53
2022-11-09T04:55:24.605Z,96958.16
2022-11-09T04:57:27.201Z,96953.78
2022-11-09T04:59:29.777Z,96949.31
2022-11-09T05:01:32.458Z,96951.19
2022-11-09T05:03:35.512Z,96940.75
2022-11-09T05:05:44.082Z,96939.09
2022-11-09T05:07:49.707Z,96939.16
2022-11-09T05:09:52.319Z,96933.59
2022-11-09T05:11:54.938Z,96918.22
2022-11-09T05:13:57.513Z,96923.09
2022-11-09T05:16:01.739Z,96921.41
2022-11-09T05:18:06.736Z,96913.75
2022-11-09T05:20:10.412Z,96918.09
2022-11-09T05:22:34.090Z,96907.47
2022-11-09T05:24:36.693Z,96907.66
2022-11-09T05:26:43.203Z,96901.53
2022-11-09T05:28:45.904Z,96902.19
2022-11-09T05:30:48.511Z,96895.34
2022-11-09T05:32:51.222Z,96897.75
2022-11-09T05:34:53.818Z,96892.59
2022-11-09T05:37:02.236Z,96885.66
2022-11-09T05:39:07.447Z,96880.13
2022-11-09T05:41:10.038Z,96868.13
2022-11-09T05:43:12.656Z,96863.72
2022-11-09T05:47:40.410Z,96857.31
2022-11-09T05:49:45.811Z,96864.16
2022-11-09T05:51:48.375Z,96869.16
2022-11-09T05:53:50.982Z,96874.03
2022-11-09T05:55:55.033Z,96874.97
2022-11-09T05:57:57.689Z,96873.25
2022-11-09T06:00:00.365Z,96873.09
2022-11-09T06:02:03.185Z,96874.66
2022-11-09T06:04:06.196Z,96871.28
2022-11-09T06:06:09.664Z,96881.44
2022-11-09T06:08:14.677Z,96874.44
2022-11-09T06:10:17.697Z,96888.97
2022-11-09T06:12:21.715Z,96893.56
2022-11-09T06:14:24.318Z,96893.50
2022-11-09T06:16:26.938Z,96893.50
2022-11-09T06:18:30.823Z,96890.75
2022-11-09T06:20:34.140Z,96896.63
2022-11-09T06:22:36.795Z,96899.22
2022-11-09T06:24:39.435Z,96898.50
2022-11-09T06:26:42.096Z,96902.53
2022-11-09T06:28:46.043Z,96904.28
2022-11-09T06:30:48.649Z,96911.28
2022-11-09T06:32:51.215Z,96910.38
2022-11-09T06:34:53.833Z,96917.34
2022-11-09T06:36:56.431Z,96912.19
2022-11-09T06:38:59.034Z,96915.63
2022-11-09T06:41:02.023Z,96919.09
2022-11-09T06:43:05.145Z,96911.28
2022-11-09T06:45:10.487Z,96924.88
2022-11-09T06:47:13.080Z,96936.88
2022-11-09T06:49:15.667Z,96935.91
2022-11-09T06:51:18.324Z,96938.38
2022-11-09T06:53:21.469Z,96952.28
2022-11-09T06:55:24.370Z,96948.03
2022-11-09T06:57:26.994Z,96953.38
2022-11-09T06:59:29.808Z,96965.50
2022-11-09T07:01:33.789Z,96964.66
2022-11-09T07:03:36.412Z,96963.81
2022-11-09T07:05:39.752Z,96966.44
2022-11-09T07:07:42.395Z,96968.13
2022-11-09T07:09:45.029Z,96971.59
2022-11-09T07:11:49.708Z,96968.91
2022-11-09T07:13:57.082Z,96968.91
2022-11-09T07:16:00.195Z,96967.97
2022-11-09T07:18:06.557Z,96966.22
2022-11-09T07:20:10.429Z,96970.56
2022-11-09T07:22:13.058Z,96970.56
2022-11-09T07:24:15.655Z,96974.13
2022-11-09T07:26:18.992Z,96977.50
2022-11-09T07:28:21.619Z,96977.59
2022-11-09T07:30:24.210Z,96981.94
2022-11-09T07:32:53.751Z,96980.19
2022-11-09T07:34:50.647Z,96984.56
2022-11-09T07:36:54.828Z,96992.38
2022-11-09T07:38:57.449Z,96995.91
2022-11-09T07:41:01.098Z,96997.59
2022-11-09T07:43:05.317Z,97006.34
2022-11-09T07:45:08.809Z,97049.78
2022-11-09T07:47:17.232Z,97052.47
2022-11-09T07:49:20.866Z,97060.00
2022-11-09T07:51:24.795Z,97069.00
2022-11-09T07:53:27.659Z,97059.50
2022-11-09T07:55:32.035Z,97056.19
2022-11-09T07:57:34.606Z,97051.97
2022-11-09T07:59:37.394Z,97064.06
2022-11-09T08:01:40.043Z,97063.63
2022-11-09T08:03:42.663Z,97064.47
2022-11-09T08:05:45.572Z,97073.22
2022-11-09T08:07:49.643Z,97075.69
2022-11-09T08:09:52.209Z,97080.03
2022-11-09T08:11:54.824Z,97076.69
2022-11-09T08:13:57.563Z,97090.41
2022-11-09T08:16:02.142Z,97084.44
2022-11-09T08:18:06.683Z,97087.69
2022-11-09T08:20:10.233Z,97080.84
2022-11-09T08:22:12.852Z,97088.72
2022-11-09T08:24:16.904Z,97088.66
2022-11-09T08:26:19.653Z,97087.56
2022-11-09T08:28:22.867Z,97093.50
2022-11-09T08:30:26.118Z,97103.66
2022-11-09T08:32:28.974Z,97095.25
2022-11-09T08:34:31.587Z,97100.53
2022-11-09T08:36:36.145Z,97087.88
2022-11-09T08:38:39.326Z,97098.44
2022-11-09T08:40:43.347Z,97093.09
2022-11-09T08:42:46.359Z,97101.06
2022-11-09T08:44:48.915Z,97096.75
2022-11-09T08:46:51.526Z,97097.47
2022-11-09T08:48:54.117Z,97100.16
2022-11-09T08:50:59.119Z,97099.03
2022-11-09T08:53:02.411Z,97095.63
2022-11-09T08:55:08.646Z,97101.56
2022-11-09T08:57:13.015Z,97107.56
2022-11-09T08:59:15.578Z,97103.06
2022-11-09T09:01:18.162Z,97109.81
2022-11-09T09:03:20.857Z,97095.56
2022-11-09T09:05:24.093Z,97098.41
2022-11-09T09:07:26.777Z,97081.03
2022-11-09T09:09:29.481Z,97084.50
2022-11-09T09:11:32.152Z,97073.72
2022-11-09T09:13:40.539Z,97072.16
2022-11-09T09:15:45.818Z,97064.41
2022-11-09T09:17:50.966Z,97055.50
2022-11-09T09:19:53.813Z,97048.47
2022-11-09T09:21:56.870Z,97053.94
2022-11-09T09:23:59.493Z,97043.34
2022-11-09T09:26:02.103Z,97043.28
2022-11-09T09:28:04.931Z,97044.13
2022-11-09T09:30:10.255Z,97046.66
2022-11-09T09:32:12.958Z,97039.63
2022-11-09T09:34:15.605Z,97039.69
2022-11-09T09:36:19.997Z,97044.56
2022-11-09T09:38:22.872Z,97037.31
2022-11-09T09:40:30.827Z,97035.53
2022-11-09T09:42:37.176Z,97041.41
2022-11-09T09:44:44.396Z,97042.31
2022-11-09T09:46:54.324Z,97035.88
2022-11-09T09:49:02.307Z,97038.28
2022-11-09T09:51:10.971Z,97038.34
2022-11-09T09:53:26.563Z,97042.59
2022-11-09T09:55:37.782Z,97036.09
2022-11-09T09:57:42.418Z,97041.25
2022-11-09T09:59:50.517Z,97041.81
2022-11-09T10:01:57.335Z,97054.72
2022-11-09T10:04:00.064Z,97053.81
2022-11-09T10:06:13.995Z,97052.53
2022-11-09T10:08:25.942Z,97052.38
2022-11-09T10:10:44.397Z,97046.06
2022-11-09T10:13:04.595Z,97045.00
2022-11-09T10:15:22.280Z,97043.28
2022-11-09T10:17:38.944Z,97047.53
2022-11-09T10:19:55.028Z,97044.47
2022-11-09T10:22:06.641Z,97041.81
2022-11-09T10:24:23.364Z,97033.66
2022-11-09T10:26:38.800Z,97032.50
2022-11-09T10:29:13.830Z,97042.03
2022-11-09T10:31:16.560Z,97027.34
2022-11-09T10:33:21.876Z,97030.03
2022-11-09T10:35:30.361Z,97023.81
2022-11-09T10:37:38.120Z,97021.88
2022-11-09T10:39:45.303Z,97020.66
2022-11-09T10:41:48.117Z,97019.53
2022-11-09T10:43:50.693Z,97012.53
2022-11-09T10:46:04.685Z,97011.66
2022-11-09T10:48:09.293Z,97010.66
2022-11-09T10:50:23.778Z,97007.66
2022-11-09T10:52:44.306Z,97006.72
2022-11-09T10:54:49.723Z,96999.28
2022-11-09T10:57:07.226Z,97011.59
2022-11-09T10:59:37.448Z,97006.66
2022-11-09T11:01:40.153Z,97010.56
2022-11-09T11:03:44.890Z,97010.50
2022-11-09T11:05:59.329Z,97014.19
2022-11-09T11:08:25.472Z,97007.34
2022-11-09T11:10:28.074Z,97010.03
2022-11-09T11:12:30.677Z,97004.78
2022-11-09T11:14:35.189Z,97007.47
2022-11-09T11:16:39.482Z,97005.38
2022-11-09T11:18:46.570Z,97003.47
2022-11-09T11:21:06.460Z,96997.22
2022-11-09T11:23:13.996Z,96998.88
2022-11-09T11:25:20.612Z,96996.38
2022-11-09T11:27:28.379Z,96991.22
2022-11-09T11:29:41.757Z,96994.97
2022-11-09T11:31:44.381Z,96981.75
2022-11-09T11:33:47.580Z,96979.91
2022-11-09T11:35:59.231Z,96990.59
2022-11-09T11:38:15.364Z,96982.75
2022-11-09T11:40:23.775Z,96982.75
2022-11-09T11:42:37.923Z,96984.44
2022-11-09T11:45:18.605Z,96989.69
2022-11-09T11:47:26.862Z,96986.38
2022-11-09T11:50:23.376Z,96985.44
2022-11-09T11:52:37.561Z,96979.34
2022-11-09T11:55:04.629Z,96980.97
2022-11-09T11:57:27.858Z,96986.91
2022-11-09T11:59:48.029Z,96979.94
2022-11-09T12:02:09.038Z,96978.28
2022-11-09T12:04:32.355Z,96980.81
2022-11-09T12:06:58.072Z,96971.34
2022-11-09T12:09:12.827Z,96972.19
2022-11-09T12:11:29.004Z,96974.03
2022-11-09T12:13:52.565Z,96960.72
2022-11-09T12:16:04.632Z,96964.00
2022-11-09T12:18:17.841Z,96963.16
2022-11-09T12:20:28.255Z,96962.75
2022-11-09T12:22:39.633Z,96961.16
2022-11-09T12:24:54.640Z,96966.69
2022-11-09T12:29:42.727Z,96956.06
2022-11-09T12:31:55.631Z,96954.34
2022-11-09T12:34:03.048Z,96953.59
2022-11-09T12:36:13.498Z,96946.81
2022-11-09T12:38:23.798Z,96947.34
2022-11-09T12:40:30.988Z,96949.34
2022-11-09T12:42:39.436Z,96952.91
2022-11-09T12:44:47.534Z,96956.22
2022-11-09T12:46:53.384Z,96946.72
2022-11-09T12:48:59.436Z,96942.53
2022-11-09T12:51:04.257Z,96936.00
2022-11-09T12:53:07.939Z,96950.91
2022-11-09T12:55:15.583Z,96943.19
2022-11-09T12:57:23.937Z,96939.66
2022-11-09T12:59:38.055Z,96938.88
2022-11-09T13:01:49.672Z,96938.81
2022-11-09T13:03:58.260Z,96944.88
2022-11-09T13:06:13.759Z,96948.69
2022-11-09T13:08:21.025Z,96948.41
2022-11-09T13:10:28.035Z,96945.31
2022-11-09T13:12:38.580Z,96950.47
2022-11-09T13:14:42.069Z,96948.00
2022-11-09T13:16:44.811Z,96947.59
2022-11-09T13:18:51.287Z,96949.78
2022-11-09T13:20:56.868Z,96947.16
2022-11-09T13:23:02.189Z,96948.19
2022-11-09T13:25:27.069Z,96947.47
2022-11-09T13:27:43.507Z,96949.34
2022-11-09T13:29:55.277Z,96957.19
2022-11-09T13:32:33.555Z,96957.19
2022-11-09T13:34:47.827Z,96953.44
2022-11-09T13:37:23.091Z,96950.63
2022-11-09T13:39:33.581Z,96952.81
2022-11-09T13:41:43.968Z,96970.06
2022-11-09T13:43:48.070Z,96959.56
2022-11-09T13:45:52.671Z,96962.28
2022-11-09T13:47:56.175Z,96964.75
2022-11-09T13:49:58.948Z,96963.91
2022-11-09T13:52:01.550Z,96963.81
2022-11-09T13:54:05.326Z,96967.44
2022-11-09T13:56:20.030Z,96968.53
2022-11-09T13:58:29.770Z,96969.38
2022-11-09T14:00:33.776Z,96977.09
2022-11-09T14:02:36.398Z,96972.91
2022-11-09T14:04:41.286Z,96979.31
2022-11-09T14:06:44.061Z,96980.16
2022-11-09T14:08:48.101Z,96989.09
2022-11-09T14:11:09.967Z,96985.50
2022-11-09T14:13:43.417Z,96985.00
2022-11-09T14:15:54.927Z,96996.28
2022-11-09T14:18:08.045Z,96998.16
2022-11-09T14:20:21.919Z,96995.56
2022-11-09T14:22:24.695Z,97004.47
2022-11-09T14:24:30.856Z,97004.47
2022-11-09T14:26:33.493Z,97000.09
2022-11-09T14:28:37.252Z,97010.31
2022-11-09T14:30:46.145Z,96999.06
2022-11-09T14:32:54.037Z,97004.31
2022-11-09T14:35:12.204Z,97002.63
2022-11-09T14:37:15.709Z,97007.00
2022-11-09T14:39:27.414Z,97023.66
2022-11-09T14:41:31.064Z,97019.34
2022-11-09T14:43:40.862Z,97025.44
2022-11-09T14:45:49.921Z,97024.84
2022-11-09T14:47:57.020Z,97028.31
2022-11-09T14:50:00.191Z,97026.69
2022-11-09T14:52:03.787Z,97029.38
2022-11-09T14:54:10.047Z,97022.13
2022-11-09T14:56:16.564Z,97030.28
2022-11-09T14:58:20.962Z,97034.63
2022-11-09T15:00:30.516Z,97042.38
2022-11-09T15:02:37.333Z,97042.78
2022-11-09T15:04:55.356Z,97042.03
2022-11-09T15:07:01.132Z,97049.88
2022-11-09T15:09:08.441Z,97050.03
2022-11-09T15:11:11.186Z,97048.34
2022-11-09T15:13:13.802Z,97043.34
2022-11-09T15:15:20.857Z,97052.03
2022-11-09T15:17:26.541Z,97050.53
2022-11-09T15:19:31.614Z,97049.75
2022-11-09T15:21:38.792Z,97052.13
2022-11-09T15:23:43.255Z,97049.66
2022-11-09T15:25:56.081Z,97042.03
2022-11-09T15:28:03.489Z,97052.50
2022-11-09T15:30:07.083Z,97052.56
2022-11-09T15:32:19.514Z,97055.19
2022-11-09T15:34:24.589Z,97058.75
2022-11-09T15:36:31.399Z,97055.44
2022-11-09T15:38:39.204Z,97065.66
2022-11-09T15:40:41.884Z,97075.38
2022-11-09T15:42:46.383Z,97069.28
2022-11-09T15:44:53.312Z,97070.38
2022-11-09T15:46:56.011Z,97079.97
2022-11-09T15:49:03.403Z,97072.97
2022-11-09T15:51:06.123Z,97073.75
2022-11-09T15:53:10.441Z,97076.28
2022-11-09T15:55:15.221Z,97081.69
2022-11-09T15:57:19.974Z,97077.75
2022-11-09T15:59:24.676Z,97081.28
2022-11-09T16:01:27.780Z,97087.38
2022-11-09T16:03:30.389Z,97083.16
2022-11-09T16:05:33.044Z,97087.69
2022-11-09T16:07:35.801Z,97079.88
2022-11-09T16:09:40.530Z,97088.75
2022-11-09T16:11:44.532Z,97087.00
2022-11-09T16:13:47.116Z,97090.50
2022-11-09T16:15:49.742Z,97092.44
2022-11-09T16:17:52.611Z,97094.28
2022-11-09T16:19:55.234Z,97099.38
2022-11-09T16:21:58.502Z,97101.28
2022-11-09T16:24:01.113Z,97102.13
2022-11-09T16:26:08.430Z,97101.38
2022-11-09T16:28:12.468Z,97106.59
2022-11-09T16:30:15.427Z,97112.81
2022-11-09T16:32:18.059Z,97117.97
2022-11-09T16:34:21.146Z,97112.66
2022-11-09T16:36:26.306Z,97111.91
2022-11-09T16:38:31.340Z,97123.28
2022-11-09T16:40:34.573Z,97116.66
2022-11-09T16:42:38.074Z,97123.47
2022-11-09T16:44:44.290Z,97123.97
2022-11-09T16:46:48.771Z,97132.84
2022-11-09T16:48:51.518Z,97138.06
2022-11-09T16:50:54.451Z,97142.38
2022-11-09T16:52:57.191Z,97140.44
2022-11-09T16:54:59.794Z,97149.06
2022-11-09T16:57:02.614Z,97145.97
2022-11-09T16:59:05.273Z,97145.69
2022-11-09T17:01:12.897Z,97154.66
2022-11-09T17:03:16.081Z,97154.75
2022-11-09T17:05:18.760Z,97157.13
2022-11-09T17:07:21.927Z,97155.63
2022-11-09T17:09:24.511Z,97157.00
2022-11-09T17:11:27.138Z,97159.47
2022-11-09T17:13:29.772Z,97169.31
2022-11-09T17:15:32.408Z,97172.81
2022-11-09T17:17:36.351Z,97168.69
2022-11-09T17:19:38.985Z,97164.22
2022-11-09T17:21:41.624Z,97176.66
2022-11-09T17:23:44.656Z,97176.88
2022-11-09T17:25:55.545Z,97174.03
2022-11-09T17:27:58.134Z,97179.06
2022-11-09T17:30:00.683Z,97180.13
2022-11-09T17:32:03.306Z,97180.91
2022-11-09T17:34:07.388Z,97185.16
2022-11-09T17:36:12.278Z,97175.75
2022-11-09T17:38:15.151Z,97182.97
2022-11-09T17:40:19.930Z,97180.50
2022-11-09T17:42:22.575Z,97180.50
2022-11-09T17:44:25.174Z,97178.44
2022-11-09T17:46:27.804Z,97172.41
2022-11-09T17:48:30.399Z,97182.19
2022-11-09T17:50:34.319Z,97178.78
2022-11-09T17:52:36.970Z,97177.09
2022-11-09T17:54:39.579Z,97180.53
2022-11-09T17:56:42.236Z,97180.50
2022-11-09T17:58:45.717Z,97171.09
2022-11-09T18:00:48.558Z,97172.13
2022-11-09T18:02:55.430Z,97172.13
2022-11-09T18:04:58.151Z,97178.22
2022-11-09T18:07:02.232Z,97179.91
2022-11-09T18:11:29.904Z,97180.13
2022-11-09T18:13:32.866Z,97181.81
2022-11-09T18:15:37.731Z,97188.91
2022-11-09T18:17:40.369Z,97183.72
2022-11-09T18:19:42.935Z,97195.13
2022-11-09T18:21:45.918Z,97194.25
2022-11-09T18:23:49.942Z,97197.88
2022-11-09T18:25:58.856Z,97205.72
2022-11-09T18:28:01.428Z,97210.16
2022-11-09T18:30:04.588Z,97216.25
2022-11-09T18:32:07.196Z,97223.31
2022-11-09T18:34:11.298Z,97224.13
2022-11-09T18:36:15.998Z,97234.59
2022-11-09T18:38:20.211Z,97240.03
2022-11-09T18:40:24.461Z,97241.69
2022-11-09T18:42:27.117Z,97250.34
2022-11-09T18:44:29.711Z,97252.97
2022-11-09T18:46:35.362Z,97246.91
2022-11-09T18:48:38.485Z,97253.81
2022-11-09T18:50:41.044Z,97261.66
2022-11-09T18:52:43.716Z,97265.13
2022-11-09T18:54:46.432Z,97267.75
2022-11-09T18:56:50.436Z,97265.06
2022-11-09T18:58:54.671Z,97272.13
2022-11-09T19:01:01.480Z,97272.13
2022-11-09T19:03:04.551Z,97280.81
2022-11-09T19:05:08.340Z,97263.50
2022-11-09T19:07:10.936Z,97276.63
2022-11-09T19:09:29.842Z,97282.72
2022-11-09T19:11:33.272Z,97284.47
2022-11-09T19:13:37.201Z,97280.28
2022-11-09T19:15:43.306Z,97281.16
2022-11-09T19:17:45.935Z,97282.06
2022-11-09T19:19:48.582Z,97283.84
2022-11-09T19:21:53.481Z,97285.66
2022-11-09T19:23:56.667Z,97285.78
2022-11-09T19:26:01.973Z,97288.38
2022-11-09T19:28:04.677Z,97286.81
2022-11-09T19:30:10.135Z,97290.34
2022-11-09T19:32:12.890Z,97298.19
2022-11-09T19:34:17.655Z,97297.34
2022-11-09T19:36:30.060Z,97294.72
2022-11-09T19:38:33.115Z,97300.00
2022-11-09T19:40:39.842Z,97302.56
2022-11-09T19:42:42.870Z,97305.16
2022-11-09T19:44:45.704Z,97301.69
2022-11-09T19:46:49.646Z,97304.38
2022-11-09T19:48:52.276Z,97307.72
2022-11-09T19:50:54.847Z,97319.16
2022-11-09T19:52:57.509Z,97317.44
2022-11-09T19:55:00.127Z,97324.47
2022-11-09T19:57:02.740Z,97323.53
2022-11-09T19:59:05.787Z,97318.44
2022-11-09T20:01:11.107Z,97324.53
2022-11-09T20:03:15.111Z,97331.59
2022-11-09T20:05:17.724Z,97335.94
2022-11-09T20:07:20.521Z,97335.09
2022-11-09T20:09:23.099Z,97343.84
2022-11-09T20:11:45.003Z,97342.13
2022-11-09T20:13:47.561Z,97343.78
2022-11-09T20:15:50.250Z,97349.81
2022-11-09T20:17:52.842Z,97351.56
2022-11-09T20:19:59.539Z,97348.09
2022-11-09T20:22:02.147Z,97352.66
2022-11-09T20:24:06.364Z,97354.38
2022-11-09T20:26:11.721Z,97357.09
2022-11-09T20:28:14.406Z,97364.03
2022-11-09T20:30:17.188Z,97364.94
2022-11-09T20:32:21.663Z,97364.09
2022-11-09T20:34:29.558Z,97364.09
2022-11-09T20:36:34.696Z,97372.78
2022-11-09T20:38:37.352Z,97375.38
2022-11-09T20:40:39.918Z,97375.38
2022-11-09T20:42:42.597Z,97378.00
2022-11-09T20:44:45.262Z,97385.06
2022-11-09T20:46:47.901Z,97385.06
2022-11-09T20:48:54.486Z,97384.34
2022-11-09T20:51:03.133Z,97394.81
2022-11-09T20:53:07.227Z,97388.72
2022-11-09T20:55:10.682Z,97397.50
2022-11-09T20:57:13.704Z,97400.09
2022-11-09T20:59:16.361Z,97401.84
2022-11-09T21:01:20.854Z,97400.91
2022-11-09T21:03:25.525Z,97397.34
2022-11-09T21:05:28.107Z,97407.00
2022-11-09T21:07:30.676Z,97402.56
2022-11-09T21:09:34.741Z,97406.16
2022-11-09T21:11:57.408Z,97409.63
2022-11-09T21:14:00.009Z,97412.16
2022-11-09T21:16:07.069Z,97413.88
2022-11-09T21:18:09.755Z,97413.91
2022-11-09T21:20:13.108Z,97413.03
2022-11-09T21:22:15.857Z,97407.06
2022-11-09T21:24:36.165Z,97414.84
2022-11-09T21:26:57.393Z,97413.03
2022-11-09T21:29:17.772Z,97420.94
2022-11-09T21:31:20.450Z,97429.56
2022-11-09T21:33:23.058Z,97427.84
2022-11-09T21:35:26.338Z,97426.09
2022-11-09T21:37:29.009Z,97428.84
2022-11-09T21:39:31.627Z,97436.59
2022-11-09T21:41:40.316Z,97438.34
2022-11-09T21:43:44.260Z,97434.88
2022-11-09T21:45:50.719Z,97441.03
2022-11-09T21:47:55.318Z,97443.50
2022-11-09T21:49:57.890Z,97447.88
2022-11-09T21:52:01.135Z,97446.06
2022-11-09T21:54:04.832Z,97455.72
2022-11-09T21:56:08.307Z,97455.69
2022-11-09T21:58:10.885Z,97469.66
2022-11-09T22:00:17.098Z,97464.34
2022-11-09T22:02:19.695Z,97468.78
2022-11-09T22:04:22.279Z,97480.22
2022-11-09T22:06:25.609Z,97473.13
2022-11-09T22:08:28.430Z,97474.06
2022-11-09T22:10:31.089Z,97469.59
2022-11-09T22:12:51.162Z,97466.53
2022-11-09T22:15:11.791Z,97467.09
2022-11-09T22:17:15.762Z,97462.34
2022-11-09T22:19:35.862Z,97467.56
2022-11-09T22:21:38.911Z,97464.34
2022-11-09T22:23:41.702Z,97475.25
2022-11-09T22:25:47.914Z,97481.44
2022-11-09T22:27:50.762Z,97476.59
2022-11-09T22:29:53.352Z,97482.78
2022-11-09T22:31:56.657Z,97479.31
2022-11-09T22:34:00.675Z,97481.75
2022-11-09T22:36:06.028Z,97480.16
2022-11-09T22:38:08.839Z,97479.25
2022-11-09T22:40:12.039Z,97490.25
2022-11-09T22:42:14.779Z,97483.63
2022-11-09T22:44:18.015Z,97494.38
2022-11-09T22:46:20.715Z,97496.97
2022-11-09T22:48:23.292Z,97499.06
2022-11-09T22:50:27.216Z,97508.81
2022-11-09T22:52:29.853Z,97522.72
2022-11-09T22:54:32.514Z,97517.56
2022-11-09T22:56:35.214Z,97516.53
2022-11-09T22:58:37.896Z,97513.06
2022-11-09T23:00:43.541Z,97520.03
2022-11-09T23:02:46.128Z,97528.19
2022-11-09T23:04:48.760Z,97521.25
2022-11-09T23:06:52.846Z,97530.06
2022-11-09T23:08:55.636Z,97523.13
2022-11-09T23:10:58.784Z,97529.19
2022-11-09T23:13:02.319Z,97537.97
2022-11-09T23:15:05.520Z,97536.19
2022-11-09T23:17:28.210Z,97541.53
2022-11-09T23:19:29.907Z,97551.13
2022-11-09T23:21:33.488Z,97550.34
2022-11-09T23:23:37.848Z,97554.63
2022-11-09T23:25:54.548Z,97564.13
2022-11-09T23:27:57.477Z,97565.94
2022-11-09T23:30:00.145Z,97577.28
2022-11-09T23:32:02.711Z,97576.28
2022-11-09T23:34:09.862Z,97573.72
2022-11-09T23:36:12.885Z,97579.88
2022-11-09T23:38:15.479Z,97579.00
2022-11-09T23:40:19.787Z,97588.66
2022-11-09T23:42:22.418Z,97586.09
2022-11-09T23:44:25.025Z,97581.72
2022-11-09T23:46:27.631Z,97585.13
2022-11-09T23:48:30.402Z,97592.00
2022-11-09T23:50:33.552Z,97592.19
2022-11-09T23:52:36.237Z,97592.94
2022-11-09T23:54:39.030Z,97591.25
2022-11-09T23:56:42.976Z,97598.13
2022-11-09T23:58:50.402Z,97599.78
